createdAt,value
2018-09-04T00:00:08.412Z,92.72
2018-09-04T00:01:08.419Z,92.52
2018-09-04T00:02:08.391Z,92.56
2018-09-04T00:03:08.384Z,92.36
2018-09-04T00:04:08.374Z,91.25
2018-09-04T00:05:08.374Z,91.15
2018-09-04T00:06:08.346Z,90.65
2018-09-04T00:07:08.337Z,90.05
2018-09-04T00:08:08.335Z,90.11
2018-09-04T00:09:08.315Z,90.05
2018-09-04T00:10:08.306Z,89.95
2018-09-04T00:11:08.294Z,89.64
2018-09-04T00:12:08.368Z,89.54
2018-09-04T00:13:08.275Z,88.84
2018-09-04T00:14:08.260Z,89.95
2018-09-04T00:15:08.248Z,88.19
2018-09-04T00:16:08.239Z,88.79
2018-09-04T00:17:08.227Z,88.90
2018-09-04T00:18:08.228Z,88.90
2018-09-04T00:19:08.207Z,88.74
2018-09-04T00:20:08.212Z,88.09
2018-09-04T00:21:08.184Z,88.54
2018-09-04T00:22:08.189Z,88.74
2018-09-04T00:23:08.165Z,88.49
2018-09-04T00:24:08.150Z,86.58
2018-09-04T00:25:08.143Z,87.49
2018-09-04T00:26:08.127Z,88.59
2018-09-04T00:27:08.125Z,89.40
2018-09-04T00:28:08.129Z,89.60
2018-09-04T00:29:08.098Z,89.40
2018-09-04T00:30:08.120Z,88.84
2018-09-04T00:31:08.077Z,88.90
2018-09-04T00:32:08.068Z,89.20
2018-09-04T00:33:08.058Z,88.94
2018-09-04T00:34:08.043Z,88.39
2018-09-04T00:35:08.035Z,89.10
2018-09-04T00:36:08.038Z,89.50
2018-09-04T00:37:08.011Z,90.20
2018-09-04T00:38:07.996Z,90.41
2018-09-04T00:39:07.990Z,90.20
2018-09-04T00:40:07.989Z,90.20
2018-09-04T00:41:07.965Z,90.41
2018-09-04T00:42:07.956Z,90.55
2018-09-04T00:43:07.946Z,90.20
2018-09-04T00:44:07.933Z,89.80
2018-09-04T00:45:07.944Z,88.94
2018-09-04T00:46:07.913Z,88.74
2018-09-04T00:47:07.901Z,88.90
2018-09-04T00:48:07.888Z,89.50
2018-09-04T00:49:07.878Z,89.84
2018-09-04T00:50:07.892Z,90.55
2018-09-04T00:51:07.856Z,89.30
2018-09-04T00:52:07.846Z,88.84
2018-09-04T00:53:07.834Z,89.04
2018-09-04T00:54:07.824Z,89.50
2018-09-04T00:55:07.811Z,90.00
2018-09-04T00:56:07.816Z,89.75
2018-09-04T00:57:07.791Z,89.80
2018-09-04T00:58:07.783Z,89.60
2018-09-04T00:59:07.827Z,89.60
2018-09-04T01:00:07.760Z,88.94
2018-09-04T01:01:07.767Z,88.70
2018-09-04T01:02:07.734Z,89.00
2018-09-04T01:03:07.745Z,88.23
2018-09-04T01:04:07.714Z,88.29
2018-09-04T01:05:07.703Z,88.74
2018-09-04T01:06:07.725Z,89.24
2018-09-04T01:07:07.685Z,89.04
2018-09-04T01:08:07.670Z,88.94
2018-09-04T01:09:07.660Z,89.75
2018-09-04T01:10:07.648Z,88.43
2018-09-04T01:11:07.637Z,88.64
2018-09-04T01:12:07.645Z,89.34
2018-09-04T01:13:07.619Z,88.74
2018-09-04T01:14:07.603Z,88.94
2018-09-04T01:15:07.591Z,88.94
2018-09-04T01:16:07.580Z,88.84
2018-09-04T01:17:07.583Z,89.54
2018-09-04T01:18:07.558Z,89.64
2018-09-04T01:19:07.551Z,89.64
2018-09-04T01:20:07.549Z,88.84
2018-09-04T01:21:07.528Z,89.04
2018-09-04T01:22:07.514Z,88.74
2018-09-04T01:23:07.504Z,89.04
2018-09-04T01:24:07.506Z,89.24
2018-09-04T01:25:07.500Z,89.64
2018-09-04T01:26:07.486Z,88.94
2018-09-04T01:27:07.464Z,88.94
2018-09-04T01:28:07.450Z,89.54
2018-09-04T01:29:07.438Z,89.34
2018-09-04T01:30:07.426Z,89.64
2018-09-04T01:31:07.414Z,89.75
2018-09-04T01:32:07.427Z,89.34
2018-09-04T01:33:07.394Z,89.04
2018-09-04T01:34:07.380Z,88.68
2018-09-04T01:35:07.380Z,88.68
2018-09-04T01:36:07.362Z,88.68
2018-09-04T01:37:07.347Z,88.43
2018-09-04T01:38:07.360Z,88.38
2018-09-04T01:39:07.323Z,88.78
2018-09-04T01:40:07.317Z,88.88
2018-09-04T01:41:07.302Z,88.38
2018-09-04T01:42:07.294Z,88.78
2018-09-04T01:43:07.280Z,88.78
2018-09-04T01:44:07.285Z,88.88
2018-09-04T01:45:07.276Z,88.58
2018-09-04T01:46:07.249Z,88.88
2018-09-04T01:47:07.238Z,89.54
2018-09-04T01:48:07.234Z,89.18
2018-09-04T01:49:07.214Z,90.19
2018-09-04T01:50:07.205Z,89.95
2018-09-04T01:51:07.234Z,89.79
2018-09-04T01:52:07.205Z,89.99
2018-09-04T01:53:07.175Z,89.79
2018-09-04T01:54:07.163Z,89.79
2018-09-04T01:55:07.150Z,89.99
2018-09-04T01:56:07.137Z,90.19
2018-09-04T01:57:07.143Z,89.99
2018-09-04T01:58:07.117Z,90.39
2018-09-04T01:59:07.106Z,90.09
2018-09-04T02:00:07.096Z,90.19
2018-09-04T02:01:07.084Z,90.29
2018-09-04T02:02:07.084Z,90.19
2018-09-04T02:03:07.079Z,90.19
2018-09-04T02:04:07.050Z,90.15
2018-09-04T02:05:07.037Z,90.49
2018-09-04T02:06:07.028Z,90.39
2018-09-04T02:07:07.020Z,90.29
2018-09-04T02:08:07.007Z,90.09
2018-09-04T02:09:07.012Z,90.19
2018-09-04T02:10:06.983Z,89.99
2018-09-04T02:11:06.972Z,89.48
2018-09-04T02:12:06.974Z,90.39
2018-09-04T02:13:06.974Z,90.19
2018-09-04T02:14:06.942Z,90.19
2018-09-04T02:15:06.927Z,89.08
2018-09-04T02:16:06.918Z,89.48
2018-09-04T02:17:06.908Z,90.39
2018-09-04T02:18:06.894Z,89.79
2018-09-04T02:19:06.895Z,89.79
2018-09-04T02:20:06.873Z,90.09
2018-09-04T02:21:06.864Z,89.99
2018-09-04T02:22:06.852Z,90.59
2018-09-04T02:23:06.842Z,90.19
2018-09-04T02:24:06.847Z,90.09
2018-09-04T02:25:06.822Z,89.99
2018-09-04T02:26:06.809Z,89.99
2018-09-04T02:27:06.814Z,90.39
2018-09-04T02:28:06.784Z,90.29
2018-09-04T02:29:06.774Z,90.69
2018-09-04T02:30:06.765Z,90.79
2018-09-04T02:31:06.755Z,90.79
2018-09-04T02:32:06.743Z,90.99
2018-09-04T02:33:06.804Z,90.99
2018-09-04T02:34:06.722Z,90.59
2018-09-04T02:35:06.711Z,90.49
2018-09-04T02:36:06.701Z,90.89
2018-09-04T02:37:06.687Z,89.99
2018-09-04T02:38:06.726Z,90.49
2018-09-04T02:39:06.675Z,90.09
2018-09-04T02:40:06.654Z,90.53
2018-09-04T02:41:06.641Z,90.13
2018-09-04T02:42:06.632Z,90.03
2018-09-04T02:43:06.623Z,90.13
2018-09-04T02:44:06.651Z,90.79
2018-09-04T02:45:06.601Z,90.49
2018-09-04T02:46:06.592Z,90.49
2018-09-04T02:47:06.581Z,90.29
2018-09-04T02:48:06.570Z,89.99
2018-09-04T02:49:06.559Z,90.39
2018-09-04T02:50:06.572Z,90.69
2018-09-04T02:51:06.537Z,90.49
2018-09-04T02:52:06.527Z,90.39
2018-09-04T02:53:06.515Z,90.49
2018-09-04T02:54:06.503Z,90.09
2018-09-04T02:55:06.493Z,90.79
2018-09-04T02:56:06.491Z,90.89
2018-09-04T02:57:06.467Z,90.29
2018-09-04T02:58:06.458Z,90.09
2018-09-04T02:59:06.448Z,90.19
2018-09-04T03:00:06.453Z,90.69
2018-09-04T03:01:06.427Z,90.89
2018-09-04T03:02:06.423Z,90.39
2018-09-04T03:03:06.400Z,90.09
2018-09-04T03:04:06.394Z,90.69
2018-09-04T03:05:06.408Z,90.69
2018-09-04T03:06:06.372Z,90.79
2018-09-04T03:07:06.359Z,91.14
2018-09-04T03:08:06.347Z,91.04
2018-09-04T03:09:06.341Z,90.64
2018-09-04T03:10:06.327Z,91.34
2018-09-04T03:11:06.327Z,91.24
2018-09-04T03:12:06.306Z,90.94
2018-09-04T03:13:06.295Z,91.44
2018-09-04T03:14:06.282Z,91.54
2018-09-04T03:15:06.272Z,90.84
2018-09-04T03:16:06.278Z,90.73
2018-09-04T03:17:06.248Z,91.04
2018-09-04T03:18:06.246Z,91.24
2018-09-04T03:19:06.241Z,91.34
2018-09-04T03:20:06.216Z,91.54
2018-09-04T03:21:06.208Z,91.24
2018-09-04T03:22:06.209Z,91.54
2018-09-04T03:23:06.248Z,91.54
2018-09-04T03:24:06.184Z,91.24
2018-09-04T03:25:06.163Z,91.58
2018-09-04T03:26:06.155Z,91.74
2018-09-04T03:27:06.154Z,91.34
2018-09-04T03:28:06.147Z,91.38
2018-09-04T03:29:06.142Z,91.44
2018-09-04T03:30:06.110Z,91.69
2018-09-04T03:31:06.099Z,91.34
2018-09-04T03:32:06.091Z,90.94
2018-09-04T03:33:06.091Z,91.44
2018-09-04T03:34:06.080Z,91.44
2018-09-04T03:35:06.053Z,91.44
2018-09-04T03:36:06.047Z,91.49
2018-09-04T03:37:06.066Z,91.44
2018-09-04T03:38:06.019Z,91.38
2018-09-04T03:39:06.015Z,91.38
2018-09-04T03:40:06.019Z,91.69
2018-09-04T03:41:05.990Z,92.39
2018-09-04T03:42:05.978Z,92.29
2018-09-04T03:43:05.968Z,92.59
2018-09-04T03:44:05.953Z,92.49
2018-09-04T03:45:05.942Z,92.19
2018-09-04T03:46:05.947Z,92.49
2018-09-04T03:47:05.929Z,92.39
2018-09-04T03:48:05.909Z,92.19
2018-09-04T03:49:05.898Z,92.19
2018-09-04T03:50:05.918Z,92.19
2018-09-04T03:51:05.878Z,92.63
2018-09-04T03:52:05.898Z,92.19
2018-09-04T03:53:05.859Z,92.29
2018-09-04T03:54:05.844Z,92.39
2018-09-04T03:55:05.831Z,92.90
2018-09-04T03:56:05.843Z,92.39
2018-09-04T03:57:05.815Z,92.39
2018-09-04T03:58:05.801Z,92.19
2018-09-04T03:59:05.787Z,92.49
2018-09-04T04:00:05.802Z,92.29
2018-09-04T04:01:05.775Z,93.04
2018-09-04T04:02:05.753Z,93.10
2018-09-04T04:03:05.743Z,92.19
2018-09-04T04:04:05.733Z,92.29
2018-09-04T04:05:05.725Z,93.10
2018-09-04T04:06:05.723Z,92.99
2018-09-04T04:07:05.701Z,93.10
2018-09-04T04:08:05.690Z,92.39
2018-09-04T04:09:05.676Z,92.09
2018-09-04T04:10:05.667Z,92.29
2018-09-04T04:11:05.668Z,93.19
2018-09-04T04:12:05.748Z,92.90
2018-09-04T04:13:05.631Z,92.90
2018-09-04T04:14:05.622Z,92.90
2018-09-04T04:15:05.614Z,92.90
2018-09-04T04:16:05.636Z,92.90
2018-09-04T04:17:05.597Z,92.79
2018-09-04T04:18:05.578Z,93.10
2018-09-04T04:19:05.568Z,92.43
2018-09-04T04:20:05.556Z,92.19
2018-09-04T04:21:05.545Z,92.39
2018-09-04T04:22:05.543Z,92.19
2018-09-04T04:23:05.523Z,92.09
2018-09-04T04:24:05.513Z,92.33
2018-09-04T04:25:05.501Z,92.19
2018-09-04T04:26:05.502Z,92.19
2018-09-04T04:27:05.517Z,92.19
2018-09-04T04:28:05.467Z,92.29
2018-09-04T04:29:05.455Z,92.59
2018-09-04T04:30:05.448Z,92.29
2018-09-04T04:31:05.432Z,93.04
2018-09-04T04:32:05.422Z,93.19
2018-09-04T04:33:05.518Z,93.19
2018-09-04T04:34:05.398Z,92.29
2018-09-04T04:35:05.390Z,92.39
2018-09-04T04:36:05.375Z,93.19
2018-09-04T04:37:05.376Z,93.10
2018-09-04T04:38:05.351Z,93.10
2018-09-04T04:39:05.347Z,93.10
2018-09-04T04:40:05.382Z,92.39
2018-09-04T04:41:05.324Z,92.99
2018-09-04T04:42:05.319Z,93.10
2018-09-04T04:43:05.296Z,92.79
2018-09-04T04:44:05.285Z,92.99
2018-09-04T04:45:05.276Z,93.19
2018-09-04T04:46:05.264Z,93.10
2018-09-04T04:47:05.271Z,93.10
2018-09-04T04:48:05.256Z,92.79
2018-09-04T04:49:05.235Z,92.69
2018-09-04T04:50:05.231Z,92.79
2018-09-04T04:51:05.208Z,93.10
2018-09-04T04:52:05.200Z,92.59
2018-09-04T04:53:05.189Z,92.09
2018-09-04T04:54:05.175Z,92.19
2018-09-04T04:55:05.177Z,92.29
2018-09-04T04:56:05.151Z,92.99
2018-09-04T04:57:05.140Z,92.79
2018-09-04T04:58:05.133Z,92.69
2018-09-04T04:59:05.120Z,92.79
2018-09-04T05:00:05.130Z,92.69
2018-09-04T05:01:05.099Z,92.90
2018-09-04T05:02:05.087Z,92.69
2018-09-04T05:03:05.073Z,92.59
2018-09-04T05:04:05.066Z,92.69
2018-09-04T05:05:05.070Z,92.79
2018-09-04T05:06:05.058Z,92.59
2018-09-04T05:07:05.030Z,92.43
2018-09-04T05:08:05.017Z,92.39
2018-09-04T05:09:05.009Z,92.19
2018-09-04T05:10:04.994Z,91.89
2018-09-04T05:11:05.065Z,92.59
2018-09-04T05:12:04.990Z,92.19
2018-09-04T05:13:04.963Z,92.29
2018-09-04T05:14:04.949Z,92.23
2018-09-04T05:15:04.938Z,92.19
2018-09-04T05:16:04.952Z,92.39
2018-09-04T05:17:04.919Z,92.39
2018-09-04T05:18:04.904Z,92.49
2018-09-04T05:19:04.896Z,92.69
2018-09-04T05:20:04.882Z,93.10
2018-09-04T05:21:04.870Z,92.29
2018-09-04T05:22:04.874Z,92.39
2018-09-04T05:23:04.849Z,93.10
2018-09-04T05:24:04.837Z,93.10
2018-09-04T05:25:04.829Z,92.99
2018-09-04T05:26:04.819Z,92.99
2018-09-04T05:27:04.819Z,91.99
2018-09-04T05:28:04.795Z,92.39
2018-09-04T05:29:04.786Z,92.49
2018-09-04T05:30:04.771Z,92.59
2018-09-04T05:31:04.762Z,92.39
2018-09-04T05:32:04.767Z,92.59
2018-09-04T05:33:04.744Z,92.39
2018-09-04T05:34:04.727Z,92.45
2018-09-04T05:35:04.730Z,91.64
2018-09-04T05:36:04.707Z,91.89
2018-09-04T05:37:04.712Z,91.85
2018-09-04T05:38:04.698Z,91.64
2018-09-04T05:39:04.678Z,91.58
2018-09-04T05:40:04.669Z,91.74
2018-09-04T05:41:04.654Z,91.85
2018-09-04T05:42:04.656Z,91.74
2018-09-04T05:43:04.633Z,91.34
2018-09-04T05:44:04.634Z,91.54
2018-09-04T05:45:04.614Z,91.54
2018-09-04T05:46:04.599Z,91.34
2018-09-04T05:47:04.587Z,91.44
2018-09-04T05:48:04.588Z,91.34
2018-09-04T05:49:04.572Z,91.44
2018-09-04T05:50:04.557Z,91.34
2018-09-04T05:51:04.546Z,91.30
2018-09-04T05:52:04.533Z,90.99
2018-09-04T05:53:04.538Z,90.69
2018-09-04T05:54:04.526Z,91.09
2018-09-04T05:55:04.557Z,91.30
2018-09-04T05:56:04.493Z,91.19
2018-09-04T05:57:04.482Z,90.89
2018-09-04T05:58:04.467Z,91.19
2018-09-04T05:59:04.494Z,91.09
2018-09-04T06:00:04.448Z,90.99
2018-09-04T06:01:04.438Z,90.85
2018-09-04T06:02:04.426Z,91.30
2018-09-04T06:03:04.419Z,91.46
2018-09-04T06:04:04.402Z,91.35
2018-09-04T06:05:04.409Z,91.05
2018-09-04T06:06:04.381Z,91.25
2018-09-04T06:07:04.369Z,90.65
2018-09-04T06:08:04.360Z,90.95
2018-09-04T06:09:04.351Z,90.91
2018-09-04T06:10:04.340Z,90.45
2018-09-04T06:11:04.372Z,89.90
2018-09-04T06:12:04.316Z,89.90
2018-09-04T06:13:04.307Z,90.20
2018-09-04T06:14:04.293Z,90.16
2018-09-04T06:15:04.285Z,89.96
2018-09-04T06:16:04.271Z,89.56
2018-09-04T06:17:04.284Z,89.70
2018-09-04T06:18:04.252Z,89.06
2018-09-04T06:19:04.237Z,89.26
2018-09-04T06:20:04.261Z,89.46
2018-09-04T06:21:04.220Z,89.42
2018-09-04T06:22:04.211Z,89.06
2018-09-04T06:23:04.213Z,89.46
2018-09-04T06:24:04.184Z,89.22
2018-09-04T06:25:04.187Z,88.71
2018-09-04T06:26:04.165Z,89.22
2018-09-04T06:27:04.166Z,88.71
2018-09-04T06:28:04.144Z,88.81
2018-09-04T06:29:04.130Z,88.71
2018-09-04T06:30:04.121Z,88.71
2018-09-04T06:31:04.133Z,88.11
2018-09-04T06:32:04.099Z,88.47
2018-09-04T06:33:04.088Z,88.57
2018-09-04T06:34:04.097Z,88.47
2018-09-04T06:35:04.067Z,88.27
2018-09-04T06:36:04.056Z,88.27
2018-09-04T06:37:04.081Z,87.87
2018-09-04T06:38:04.036Z,88.07
2018-09-04T06:39:04.022Z,87.77
2018-09-04T06:40:04.009Z,87.93
2018-09-04T06:41:03.998Z,87.73
2018-09-04T06:42:03.989Z,87.96
2018-09-04T06:43:03.992Z,87.93
2018-09-04T06:44:03.980Z,87.73
2018-09-04T06:45:03.971Z,87.96
2018-09-04T06:46:03.943Z,88.02
2018-09-04T06:47:03.932Z,88.12
2018-09-04T06:48:03.925Z,87.52
2018-09-04T06:49:03.926Z,87.12
2018-09-04T06:50:03.914Z,86.52
2018-09-04T06:51:03.888Z,86.92
2018-09-04T06:52:03.877Z,87.02
2018-09-04T06:53:03.869Z,86.42
2018-09-04T06:54:03.858Z,87.12
2018-09-04T06:55:03.859Z,87.12
2018-09-04T06:56:03.833Z,86.72
2018-09-04T06:57:03.825Z,86.28
2018-09-04T06:58:03.812Z,86.52
2018-09-04T06:59:03.803Z,86.12
2018-09-04T07:00:03.808Z,85.92
2018-09-04T07:01:03.795Z,86.32
2018-09-04T07:02:03.768Z,85.97
2018-09-04T07:03:03.760Z,85.97
2018-09-04T07:04:03.745Z,86.48
2018-09-04T07:05:03.736Z,85.97
2018-09-04T07:06:03.765Z,83.27
2018-09-04T07:07:03.733Z,84.37
2018-09-04T07:08:03.705Z,84.88
2018-09-04T07:09:03.692Z,84.33
2018-09-04T07:10:03.686Z,84.23
2018-09-04T07:11:03.686Z,84.43
2018-09-04T07:12:03.657Z,84.33
2018-09-04T07:13:03.649Z,84.53
2018-09-04T07:14:03.639Z,83.93
2018-09-04T07:15:03.654Z,83.23
2018-09-04T07:16:03.659Z,82.43
2018-09-04T07:17:03.614Z,82.53
2018-09-04T07:18:03.593Z,82.23
2018-09-04T07:19:03.581Z,82.32
2018-09-04T07:20:03.575Z,83.13
2018-09-04T07:21:03.561Z,83.33
2018-09-04T07:22:03.563Z,84.03
2018-09-04T07:23:03.539Z,83.73
2018-09-04T07:24:03.546Z,84.63
2018-09-04T07:25:03.533Z,84.93
2018-09-04T07:26:03.506Z,84.43
2018-09-04T07:27:03.538Z,84.23
2018-09-04T07:28:03.487Z,84.09
2018-09-04T07:29:03.475Z,84.13
2018-09-04T07:30:03.465Z,83.09
2018-09-04T07:31:03.452Z,82.69
2018-09-04T07:32:03.440Z,82.89
2018-09-04T07:33:03.442Z,82.24
2018-09-04T07:34:03.419Z,82.09
2018-09-04T07:35:03.408Z,83.29
2018-09-04T07:36:03.397Z,84.49
2018-09-04T07:37:03.410Z,84.15
2018-09-04T07:38:03.374Z,84.55
2018-09-04T07:39:03.363Z,84.65
2018-09-04T07:40:03.352Z,84.21
2018-09-04T07:41:03.341Z,83.91
2018-09-04T07:42:03.395Z,84.45
2018-09-04T07:43:03.335Z,84.11
2018-09-04T07:44:03.311Z,84.41
2018-09-04T07:45:03.302Z,82.91
2018-09-04T07:46:03.289Z,82.91
2018-09-04T07:47:03.275Z,82.61
2018-09-04T07:48:03.284Z,83.41
2018-09-04T07:49:03.280Z,82.71
2018-09-04T07:50:03.248Z,82.11
2018-09-04T07:51:03.235Z,82.21
2018-09-04T07:52:03.223Z,82.41
2018-09-04T07:53:03.210Z,81.97
2018-09-04T07:54:03.206Z,81.67
2018-09-04T07:55:03.205Z,81.57
2018-09-04T07:56:03.179Z,81.47
2018-09-04T07:57:03.178Z,80.73
2018-09-04T07:58:03.159Z,80.63
2018-09-04T07:59:03.148Z,81.23
2018-09-04T08:00:03.155Z,80.83
2018-09-04T08:01:03.191Z,80.53
2018-09-04T08:02:03.112Z,80.93
2018-09-04T08:03:03.108Z,80.53
2018-09-04T08:04:03.096Z,80.79
2018-09-04T08:05:03.099Z,80.49
2018-09-04T08:06:03.073Z,79.79
2018-09-04T08:07:03.061Z,79.49
2018-09-04T08:08:03.051Z,78.99
2018-09-04T08:09:03.053Z,79.05
2018-09-04T08:10:03.038Z,78.96
2018-09-04T08:11:03.019Z,78.75
2018-09-04T08:12:03.008Z,78.31
2018-09-04T08:13:02.995Z,77.51
2018-09-04T08:14:02.996Z,77.38
2018-09-04T08:15:02.973Z,75.89
2018-09-04T08:16:02.963Z,75.78
2018-09-04T08:17:02.951Z,76.98
2018-09-04T08:18:02.937Z,76.45
2018-09-04T08:19:02.953Z,76.25
2018-09-04T08:20:02.916Z,76.25
2018-09-04T08:21:02.909Z,74.62
2018-09-04T08:22:02.897Z,75.11
2018-09-04T08:23:02.888Z,74.48
2018-09-04T08:24:02.884Z,74.34
2018-09-04T08:25:02.873Z,73.61
2018-09-04T08:26:02.920Z,72.71
2018-09-04T08:27:02.844Z,72.11
2018-09-04T08:28:02.850Z,70.59
2018-09-04T08:29:02.823Z,71.35
2018-09-04T08:30:02.824Z,70.75
2018-09-04T08:31:02.805Z,71.12
2018-09-04T08:32:02.789Z,69.03
2018-09-04T08:33:02.817Z,68.04
2018-09-04T08:34:02.768Z,68.04
2018-09-04T08:35:02.759Z,67.86
2018-09-04T08:36:02.748Z,67.67
2018-09-04T08:37:02.736Z,68.99
2018-09-04T08:38:02.725Z,71.15
2018-09-04T08:39:02.741Z,69.76
2018-09-04T08:40:02.724Z,70.15
2018-09-04T08:41:02.697Z,70.26
2018-09-04T08:42:02.681Z,70.36
2018-09-04T08:43:02.674Z,69.56
2018-09-04T08:44:02.660Z,69.62
2018-09-04T08:45:02.675Z,69.62
2018-09-04T08:46:02.634Z,69.62
2018-09-04T08:47:02.635Z,69.73
2018-09-04T08:48:02.616Z,68.76
2018-09-04T08:49:02.613Z,69.26
2018-09-04T08:50:02.602Z,69.56
2018-09-04T08:51:02.602Z,70.85
2018-09-04T08:52:02.577Z,71.09
2018-09-04T08:53:02.565Z,70.79
2018-09-04T08:54:02.554Z,71.39
2018-09-04T08:55:02.547Z,71.92
2018-09-04T08:56:02.549Z,71.32
2018-09-04T08:57:02.541Z,72.31
2018-09-04T08:58:02.514Z,71.72
2018-09-04T08:59:02.506Z,72.02
2018-09-04T09:00:02.501Z,72.71
2018-09-04T09:01:02.482Z,71.92
2018-09-04T09:02:02.467Z,72.98
2018-09-04T09:03:02.482Z,71.98
2018-09-04T09:04:02.449Z,71.65
2018-09-04T09:05:02.440Z,70.26
2018-09-04T09:06:02.426Z,70.32
2018-09-04T09:07:02.414Z,70.03
2018-09-04T09:08:02.402Z,69.20
2018-09-04T09:09:02.414Z,68.16
2018-09-04T09:10:02.388Z,67.47
2018-09-04T09:11:02.372Z,67.04
2018-09-04T09:12:02.361Z,67.21
2018-09-04T09:13:02.393Z,67.50
2018-09-04T09:14:02.340Z,67.21
2018-09-04T09:15:02.332Z,68.10
2018-09-04T09:16:02.322Z,67.60
2018-09-04T09:17:02.310Z,66.71
2018-09-04T09:18:02.297Z,67.50
2018-09-04T09:19:02.303Z,65.99
2018-09-04T09:20:02.280Z,66.48
2018-09-04T09:21:02.267Z,66.65
2018-09-04T09:22:02.256Z,66.15
2018-09-04T09:23:02.258Z,65.86
2018-09-04T09:24:02.283Z,66.05
2018-09-04T09:25:02.225Z,66.25
2018-09-04T09:26:02.216Z,66.05
2018-09-04T09:27:02.206Z,65.23
2018-09-04T09:28:02.196Z,65.33
2018-09-04T09:29:02.186Z,65.56
2018-09-04T09:30:02.252Z,65.23
2018-09-04T09:31:02.163Z,65.23
2018-09-04T09:32:02.153Z,65.33
2018-09-04T09:33:02.145Z,64.20
2018-09-04T09:34:02.134Z,64.90
2018-09-04T09:35:02.139Z,63.81
2018-09-04T09:36:02.126Z,64.34
2018-09-04T09:37:02.170Z,64.50
2018-09-04T09:38:02.092Z,63.91
2018-09-04T09:39:02.082Z,64.31
2018-09-04T09:40:02.081Z,64.20
2018-09-04T09:41:02.100Z,63.61
2018-09-04T09:42:02.051Z,62.82
2018-09-04T09:43:02.041Z,63.42
2018-09-04T09:44:02.028Z,63.28
2018-09-04T09:45:02.017Z,63.18
2018-09-04T09:46:02.006Z,62.69
2018-09-04T09:47:02.014Z,63.28
2018-09-04T09:48:01.987Z,62.29
2018-09-04T09:49:01.976Z,62.79
2018-09-04T09:50:01.969Z,63.78
2018-09-04T09:51:01.955Z,63.65
2018-09-04T09:52:01.960Z,62.56
2018-09-04T09:53:01.984Z,62.07
2018-09-04T09:54:01.999Z,62.66
2018-09-04T09:55:01.914Z,62.13
2018-09-04T09:56:01.926Z,61.77
2018-09-04T09:57:01.911Z,61.37
2018-09-04T09:58:01.883Z,62.26
2018-09-04T09:59:01.873Z,61.87
2018-09-04T10:00:01.887Z,61.83
2018-09-04T10:01:01.858Z,60.75
2018-09-04T10:02:01.873Z,61.83
2018-09-04T10:03:01.832Z,60.45
2018-09-04T10:04:01.920Z,61.27
2018-09-04T10:05:01.812Z,61.07
2018-09-04T10:06:01.803Z,61.57
2018-09-04T10:07:01.809Z,62.96
2018-09-04T10:08:01.823Z,62.26
2018-09-04T10:09:01.772Z,61.83
2018-09-04T10:10:01.798Z,60.45
2018-09-04T10:11:01.749Z,60.48
2018-09-04T10:12:01.742Z,60.78
2018-09-04T10:13:01.744Z,62.85
2018-09-04T10:14:01.763Z,63.55
2018-09-04T10:15:01.709Z,62.53
2018-09-04T10:16:01.700Z,60.06
2018-09-04T10:17:01.689Z,61.15
2018-09-04T10:18:01.695Z,60.92
2018-09-04T10:19:01.670Z,59.44
2018-09-04T10:20:01.787Z,59.93
2018-09-04T10:21:01.646Z,60.72
2018-09-04T10:22:01.639Z,62.40
2018-09-04T10:23:01.654Z,61.18
2018-09-04T10:24:01.615Z,59.47
2018-09-04T10:25:01.605Z,60.53
2018-09-04T10:26:01.598Z,61.29
2018-09-04T10:27:01.585Z,58.40
2018-09-04T10:28:01.580Z,57.78
2018-09-04T10:29:01.582Z,58.18
2018-09-04T10:30:01.555Z,58.05
2018-09-04T10:31:01.546Z,56.27
2018-09-04T10:32:01.535Z,57.65
2018-09-04T10:33:01.526Z,57.75
2018-09-04T10:34:01.526Z,58.54
2018-09-04T10:35:01.508Z,56.54
2018-09-04T10:36:01.497Z,55.56
2018-09-04T10:37:01.496Z,54.47
2018-09-04T10:38:01.476Z,54.87
2018-09-04T10:39:01.506Z,54.21
2018-09-04T10:40:01.458Z,53.91
2018-09-04T10:41:01.443Z,54.33
2018-09-04T10:42:01.453Z,55.41
2018-09-04T10:43:01.423Z,55.71
2018-09-04T10:44:01.418Z,54.33
2018-09-04T10:45:01.419Z,54.63
2018-09-04T10:46:01.396Z,53.44
2018-09-04T10:47:01.384Z,53.81
2018-09-04T10:48:01.375Z,55.49
2018-09-04T10:49:01.389Z,52.14
2018-09-04T10:50:01.356Z,52.16
2018-09-04T10:51:01.342Z,53.57
2018-09-04T10:52:01.335Z,55.35
2018-09-04T10:53:01.321Z,55.54
2018-09-04T10:54:01.309Z,56.50
2018-09-04T10:55:01.321Z,54.93
2018-09-04T10:56:01.291Z,55.79
2018-09-04T10:57:01.282Z,53.71
2018-09-04T10:58:01.272Z,53.69
2018-09-04T10:59:01.265Z,54.57
2018-09-04T11:00:01.252Z,51.52
2018-09-04T11:01:01.251Z,49.82
2018-09-04T11:02:01.281Z,49.62
2018-09-04T11:03:01.217Z,49.62
2018-09-04T11:04:01.208Z,50.68
2018-09-04T11:05:01.197Z,49.62
2018-09-04T11:06:01.187Z,49.92
2018-09-04T11:07:01.178Z,51.54
2018-09-04T11:08:01.185Z,51.25
2018-09-04T11:09:01.174Z,48.37
2018-09-04T11:10:01.333Z,49.87
2018-09-04T11:11:01.153Z,50.34
2018-09-04T11:12:01.128Z,48.96
2018-09-04T11:13:01.115Z,48.65
2018-09-04T11:14:01.105Z,46.48
2018-09-04T11:15:01.150Z,48.08
2018-09-04T11:16:01.104Z,47.58
2018-09-04T11:17:01.075Z,47.98
2018-09-04T11:18:01.066Z,48.57
2018-09-04T11:19:01.057Z,49.63
2018-09-04T11:20:01.045Z,46.41
2018-09-04T11:21:01.052Z,47.39
2018-09-04T11:22:01.045Z,47.49
2018-09-04T11:23:01.020Z,47.88
2018-09-04T11:24:01.005Z,48.08
2018-09-04T11:25:00.995Z,48.65
2018-09-04T11:26:00.988Z,47.96
2018-09-04T11:27:00.984Z,47.07
2018-09-04T11:28:00.980Z,45.87
2018-09-04T11:29:00.960Z,48.13
2018-09-04T11:30:00.951Z,46.19
2018-09-04T11:31:00.954Z,47.07
2018-09-04T11:32:00.930Z,45.99
2018-09-04T11:33:00.940Z,47.47
2018-09-04T11:34:00.913Z,46.88
2018-09-04T11:35:00.899Z,45.10
2018-09-04T11:36:00.891Z,47.88
2018-09-04T11:37:00.881Z,48.47
2018-09-04T11:38:00.871Z,48.08
2018-09-04T11:39:00.873Z,47.09
2018-09-04T11:40:00.882Z,48.55
2018-09-04T11:41:00.838Z,48.43
2018-09-04T11:42:00.827Z,47.44
2018-09-04T11:43:00.818Z,47.91
2018-09-04T11:44:00.821Z,47.22
2018-09-04T11:45:00.800Z,47.59
2018-09-04T11:46:00.789Z,45.92
2018-09-04T11:47:00.854Z,45.63
2018-09-04T11:48:00.770Z,45.16
2018-09-04T11:49:00.777Z,45.43
2018-09-04T11:50:00.755Z,45.67
2018-09-04T11:51:00.740Z,46.06
2018-09-04T11:52:00.732Z,46.68
2018-09-04T11:53:00.746Z,46.58
2018-09-04T11:54:00.708Z,47.17
2018-09-04T11:55:00.700Z,47.15
2018-09-04T11:56:00.690Z,46.83
2018-09-04T11:57:00.686Z,45.95
2018-09-04T11:58:00.691Z,45.85
2018-09-04T11:59:00.663Z,46.24
2018-09-04T12:00:00.655Z,45.65
2018-09-04T12:01:00.644Z,44.87
2018-09-04T12:02:00.640Z,45.55
2018-09-04T12:03:00.624Z,44.77
2018-09-04T12:04:00.627Z,45.06
2018-09-04T12:05:00.614Z,45.04
2018-09-04T12:06:00.594Z,44.45
2018-09-04T12:07:00.585Z,45.14
2018-09-04T12:08:00.573Z,44.35
2018-09-04T12:09:00.580Z,43.35
2018-09-04T12:10:00.572Z,44.04
2018-09-04T12:11:00.545Z,44.23
2018-09-04T12:12:00.536Z,44.43
2018-09-04T12:13:00.604Z,45.41
2018-09-04T12:14:00.528Z,44.04
2018-09-04T12:15:00.502Z,44.90
2018-09-04T12:16:00.492Z,43.82
2018-09-04T12:17:00.501Z,43.72
2018-09-04T12:18:00.474Z,43.94
2018-09-04T12:19:00.476Z,45.61
2018-09-04T12:20:00.469Z,44.92
2018-09-04T12:21:00.619Z,42.47
2018-09-04T12:22:00.435Z,45.04
2018-09-04T12:23:00.427Z,43.47
2018-09-04T12:24:00.425Z,45.06
2018-09-04T12:25:00.407Z,45.55
2018-09-04T12:26:00.410Z,46.44
2018-09-04T12:27:00.407Z,45.06
2018-09-04T12:28:00.377Z,46.17
2018-09-04T12:29:00.365Z,46.28
2018-09-04T12:30:00.353Z,47.00
2018-09-04T12:31:00.378Z,47.19
2018-09-04T12:32:00.349Z,47.31
2018-09-04T12:33:00.333Z,47.73
2018-09-04T12:34:00.354Z,47.51
2018-09-04T12:35:00.304Z,46.84
2018-09-04T12:36:00.297Z,46.53
2018-09-04T12:37:00.323Z,47.41
2018-09-04T12:38:00.271Z,47.80
2018-09-04T12:39:00.264Z,46.31
2018-09-04T12:40:00.252Z,46.50
2018-09-04T12:41:00.243Z,46.21
2018-09-04T12:42:00.233Z,44.83
2018-09-04T12:43:00.236Z,44.44
2018-09-04T12:44:00.208Z,45.74
2018-09-04T12:45:00.201Z,45.84
2018-09-04T12:46:00.192Z,46.45
2018-09-04T12:47:00.197Z,45.47
2018-09-04T12:48:00.195Z,46.15
2018-09-04T12:49:00.160Z,46.65
2018-09-04T12:50:00.148Z,46.45
2018-09-04T12:51:00.140Z,46.08
2018-09-04T12:52:00.153Z,45.02